Time;durP1;ratioP1;P1;durP2;ratioP2;P2;SDS_P1;SDS_P2;PMS_P1;PMS_P2;Temp;Humidity;BMP_temperature;BMP_pressure;BME280_temperature;BME280_humidity;BME280_pressure;Samples;Min_cycle;Max_cycle;Signal;HPM_P1;HPM_P2
2022/06/12 00:00:53;;;;;;;;;;;;;;;;;;5111632;28;1972;-67
2022/06/12 00:03:19;;;;;;;;;;;;;;;;;;5112804;28;912;-67
2022/06/12 00:05:45;;;;;;;;;;;;;;;;;;5113169;28;966;-67
2022/06/12 00:08:11;;;;;;;;;;;;;;;;;;5112908;28;855;-67
2022/06/12 00:10:37;;;;;;;;;;;;;;;;;;5111613;28;1129;-67
2022/06/12 00:13:03;;;;;;;;;;;;;;;;;;5112814;28;1541;-67
2022/06/12 00:15:29;;;;;;;;;;;;;;;;;;5112845;28;923;-67
2022/06/12 00:17:54;;;;;;;;;;;;;;;;;;5112777;28;840;-67
2022/06/12 00:20:25;;;;;;;;;;;;;;;;;;5112042;28;1934;-67
2022/06/12 00:22:51;;;;;;;;;;;;;;;;;;5112383;28;871;-68
2022/06/12 00:25:18;;;;;;;;;;;;;;;;;;5112285;28;879;-67
2022/06/12 00:27:44;;;;;;;;;;;;;;;;;;5112242;28;907;-68
2022/06/12 00:30:11;;;;;;;;;;;;;;;;;;5112107;28;943;-67
2022/06/12 00:32:36;;;;;;;;;;;;;;;;;;5111667;28;1348;-67
2022/06/12 00:35:02;;;;;;;;;;;;;;;;;;5112011;28;904;-67
2022/06/12 00:37:28;;;;;;;;;;;;;;;;;;5112956;28;828;-67
2022/06/12 00:39:55;;;;;;;;;;;;;;;;;;5112556;28;1957;-67
2022/06/12 00:42:23;;;;;;;;;;;;;;;;;;5112526;28;931;-67
2022/06/12 00:44:48;;;;;;;;;;;;;;;;;;5111674;28;1545;-67
2022/06/12 00:47:14;;;;;;;;;;;;;;;;;;5112129;28;972;-67
2022/06/12 00:49:48;;;;;;;;;;;;;;;;;;5110692;28;1273;-67
2022/06/12 00:52:13;;;;;;;;;;;;;;;;;;5111994;28;927;-67
2022/06/12 00:54:41;;;;;;;;;;;;;;;;;;5112242;28;883;-67
2022/06/12 00:57:07;;;;;;;;;;;;;;;;;;5110123;28;1306;-67
2022/06/12 00:59:35;;;;;;;;;;;;;;;;;;5110209;28;1973;-67
2022/06/12 01:02:01;;;;;;;;;;;;;;;;;;5111460;28;876;-67
2022/06/12 01:07:12;;;;;;;;;;;;;;;;;;5111945;28;776;-67
2022/06/12 01:09:40;;;;;;;;;;;;;;;;;;5111533;28;1215;-67
2022/06/12 01:12:08;;;;;;;;;;;;;;;;;;5109415;28;1392;-67
2022/06/12 01:14:35;;;;;;;;;;;;;;;;;;5111450;28;926;-67
2022/06/12 01:17:02;;;;;;;;;;;;;;;;;;5111600;28;927;-67
2022/06/12 01:19:30;;;;;;;;;;;;;;;;;;5110647;28;1965;-67
2022/06/12 01:22:04;;;;;;;;;;;;;;;;;;5111288;28;812;-67
2022/06/12 01:24:54;;;;;;;;;;;;;;;;;;5111951;28;789;-67
2022/06/12 01:27:31;;;;;;;;;;;;;;;;;;5111269;28;923;-67
2022/06/12 01:30:16;;;;;;;;;;;;;;;;;;5111123;28;634;-67
2022/06/12 01:32:48;;;;;;;;;;;;;;;;;;5110606;28;1256;-67
2022/06/12 01:35:16;;;;;;;;;;;;;;;;;;5110089;28;1180;-66
2022/06/12 01:37:53;;;;;;;;;;;;;;;;;;5111918;28;855;-67
2022/06/12 01:40:22;;;;;;;;;;;;;;;;;;5109737;28;1913;-67
2022/06/12 01:42:50;;;;;;;;;;;;;;;;;;5111434;28;947;-67
2022/06/12 01:45:27;;;;;;;;;;;;;;;;;;5111014;28;880;-67
2022/06/12 01:47:52;;;;;;;;;;;;;;;;;;5110016;28;1178;-67
2022/06/12 01:50:23;;;;;;;;;;;;;;;;;;5111059;28;919;-67
2022/06/12 01:52:56;;;;;;;;;;;;;;;;;;5110907;28;970;-67
2022/06/12 01:55:26;;;;;;;;;;;;;;;;;;5110979;28;844;-67
2022/06/12 01:58:06;;;;;;;;;;;;;;;;;;5109723;28;1153;-67
2022/06/12 02:00:32;;;;;;;;;;;;;;;;;;5112530;28;1937;-66
2022/06/12 02:03:11;;;;;;;;;;;;;;;;;;5116606;28;762;-67
2022/06/12 02:05:46;;;;;;;;;;;;;;;;;;5116405;28;1016;-67
2022/06/12 02:08:16;;;;;;;;;;;;;;;;;;5117412;28;1157;-67
2022/06/12 02:10:44;;;;;;;;;;;;;;;;;;5117444;28;1010;-67
2022/06/12 02:13:13;;;;;;;;;;;;;;;;;;5118286;28;824;-67
2022/06/12 02:15:48;;;;;;;;;;;;;;;;;;5118471;28;800;-68
2022/06/12 02:18:32;;;;;;;;;;;;;;;;;;5116039;28;1198;-67
2022/06/12 02:21:00;;;;;;;;;;;;;;;;;;5118079;28;1909;-67
2022/06/12 02:23:32;;;;;;;;;;;;;;;;;;5116340;28;1235;-67
2022/06/12 02:25:59;;;;;;;;;;;;;;;;;;5115981;28;1418;-67
2022/06/12 02:28:28;;;;;;;;;;;;;;;;;;5117185;27;919;-68
2022/06/12 02:30:57;;;;;;;;;;;;;;;;;;5115546;28;903;-67
2022/06/12 02:33:28;;;;;;;;;;;;;;;;;;5113495;28;1209;-68
2022/06/12 02:35:56;;;;;;;;;;;;;;;;;;5115105;28;867;-67
2022/06/12 02:38:25;;;;;;;;;;;;;;;;;;5113600;28;1377;-68
2022/06/12 02:40:58;;;;;;;;;;;;;;;;;;5113650;28;1882;-68
2022/06/12 02:43:26;;;;;;;;;;;;;;;;;;5114207;28;942;-68
2022/06/12 02:45:54;;;;;;;;;;;;;;;;;;5114960;28;793;-68
2022/06/12 02:48:20;;;;;;;;;;;;;;;;;;5114044;28;805;-68
2022/06/12 02:51:24;;;;;;;;;;;;;;;;;;5114398;28;895;-68
2022/06/12 02:53:49;;;;;;;;;;;;;;;;;;5071163;28;1146;-68
2022/06/12 02:56:17;;;;;;;;;;;;;;;;;;5070746;28;818;-67
2022/06/12 02:58:49;;;;;;;;;;;;;;;;;;5080701;28;1499;-67
2022/06/12 03:01:20;;;;;;;;;;;;;;;;;;5112468;28;1890;-68
2022/06/12 03:03:54;;;;;;;;;;;;;;;;;;5114353;28;1002;-68
2022/06/12 03:06:20;;;;;;;;;;;;;;;;;;5113671;28;847;-68
2022/06/12 03:08:46;;;;;;;;;;;;;;;;;;5114455;28;833;-68
2022/06/12 03:11:20;;;;;;;;;;;;;;;;;;5113860;28;990;-68
2022/06/12 03:13:46;;;;;;;;;;;;;;;;;;5112503;28;1163;-68
2022/06/12 03:16:13;;;;;;;;;;;;;;;;;;5113684;28;1010;-67
2022/06/12 03:18:41;;;;;;;;;;;;;;;;;;5114396;28;1340;-68
2022/06/12 03:21:25;;;;;;;;;;;;;;;;;;5113983;28;1913;-67
2022/06/12 03:23:56;;;;;;;;;;;;;;;;;;5114248;28;773;-67
2022/06/12 03:26:31;;;;;;;;;;;;;;;;;;5114050;28;994;-68
2022/06/12 03:29:02;;;;;;;;;;;;;;;;;;5114038;27;1001;-68
2022/06/12 03:31:34;;;;;;;;;;;;;;;;;;5113805;28;872;-67
2022/06/12 03:34:04;;;;;;;;;;;;;;;;;;5113924;28;1092;-68
2022/06/12 03:36:33;;;;;;;;;;;;;;;;;;5113529;28;1027;-68
2022/06/12 03:39:05;;;;;;;;;;;;;;;;;;5113778;28;974;-68
2022/06/12 03:41:45;;;;;;;;;;;;;;;;;;5113489;28;1914;-68
2022/06/12 03:44:16;;;;;;;;;;;;;;;;;;5113080;28;918;-67
2022/06/12 03:46:47;;;;;;;;;;;;;;;;;;5113163;28;876;-67
2022/06/12 03:49:12;;;;;;;;;;;;;;;;;;5112959;28;1032;-67
2022/06/12 03:51:53;;;;;;;;;;;;;;;;;;5113556;28;891;-67
2022/06/12 03:54:30;;;;;;;;;;;;;;;;;;5112162;28;1310;-67
2022/06/12 03:59:47;;;;;;;;;;;;;;;;;;5113890;28;1906;-67
2022/06/12 04:02:15;;;;;;;;;;;;;;;;;;5113179;28;998;-67
2022/06/12 04:04:42;;;;;;;;;;;;;;;;;;5113934;28;904;-67
2022/06/12 04:07:09;;;;;;;;;;;;;;;;;;5113480;28;1007;-67
2022/06/12 04:09:38;;;;;;;;;;;;;;;;;;5113643;28;919;-67
2022/06/12 04:12:07;;;;;;;;;;;;;;;;;;5111414;28;1178;-67
2022/06/12 04:14:36;;;;;;;;;;;;;;;;;;5113042;28;1291;-67
2022/06/12 04:17:02;;;;;;;;;;;;;;;;;;5112824;28;974;-68
2022/06/12 04:19:29;;;;;;;;;;;;;;;;;;5111925;28;1980;-67
2022/06/12 04:21:54;;;;;;;;;;;;;;;;;;5111375;28;1214;-66
2022/06/12 04:24:28;;;;;;;;;;;;;;;;;;5111057;28;847;-67
2022/06/12 04:27:04;;;;;;;;;;;;;;;;;;5111168;28;1197;-67
2022/06/12 04:29:34;;;;;;;;;;;;;;;;;;5111789;28;845;-68
2022/06/12 04:32:01;;;;;;;;;;;;;;;;;;5112517;28;864;-67
2022/06/12 04:34:31;;;;;;;;;;;;;;;;;;5112050;28;891;-68
2022/06/12 04:36:59;;;;;;;;;;;;;;;;;;5112898;28;911;-67
2022/06/12 04:39:27;;;;;;;;;;;;;;;;;;5111536;28;1956;-67
2022/06/12 04:41:53;;;;;;;;;;;;;;;;;;5110936;28;1444;-67
2022/06/12 04:44:19;;;;;;;;;;;;;;;;;;5110631;28;1264;-66
2022/06/12 04:46:46;;;;;;;;;;;;;;;;;;5111998;28;907;-66
2022/06/12 04:49:16;;;;;;;;;;;;;;;;;;5112216;28;796;-66
2022/06/12 04:51:42;;;;;;;;;;;;;;;;;;5112833;28;843;-67
2022/06/12 04:54:07;;;;;;;;;;;;;;;;;;5112595;28;911;-67
2022/06/12 04:56:34;;;;;;;;;;;;;;;;;;5110627;28;1180;-67
2022/06/12 04:58:59;;;;;;;;;;;;;;;;;;5112753;28;863;-66
2022/06/12 05:01:25;;;;;;;;;;;;;;;;;;5111697;28;1898;-67
2022/06/12 05:03:50;;;;;;;;;;;;;;;;;;5110650;28;891;-67
2022/06/12 05:06:16;;;;;;;;;;;;;;;;;;5083008;28;1341;-67
2022/06/12 05:08:42;;;;;;;;;;;;;;;;;;5091828;28;804;-67
2022/06/12 05:11:07;;;;;;;;;;;;;;;;;;5090551;28;1140;-67
2022/06/12 05:13:32;;;;;;;;;;;;;;;;;;5091237;28;1152;-67
2022/06/12 05:15:59;;;;;;;;;;;;;;;;;;5105969;28;1366;-67
2022/06/12 05:18:25;;;;;;;;;;;;;;;;;;5110243;28;1139;-67
2022/06/12 05:20:50;;;;;;;;;;;;;;;;;;5100660;28;1917;-68
2022/06/12 05:23:16;;;;;;;;;;;;;;;;;;5091155;28;848;-68
2022/06/12 05:25:42;;;;;;;;;;;;;;;;;;5089885;28;1504;-68
2022/06/12 05:28:07;;;;;;;;;;;;;;;;;;5089761;28;1378;-68
2022/06/12 05:30:34;;;;;;;;;;;;;;;;;;5089557;28;896;-68
2022/06/12 05:33:00;;;;;;;;;;;;;;;;;;5089444;28;1241;-67
2022/06/12 05:35:26;;;;;;;;;;;;;;;;;;5090537;28;782;-67
2022/06/12 05:37:52;;;;;;;;;;;;;;;;;;5091129;28;1003;-68
2022/06/12 05:40:22;;;;;;;;;;;;;;;;;;5090566;28;1913;-68
2022/06/12 05:42:49;;;;;;;;;;;;;;;;;;5091287;28;908;-68
2022/06/12 05:45:16;;;;;;;;;;;;;;;;;;5090571;28;895;-68
2022/06/12 05:47:52;;;;;;;;;;;;;;;;;;5090808;28;998;-68
2022/06/12 05:50:19;;;;;;;;;;;;;;;;;;5091192;28;820;-68
2022/06/12 05:52:44;;;;;;;;;;;;;;;;;;5091776;28;928;-67
2022/06/12 05:55:10;;;;;;;;;;;;;;;;;;5091099;28;817;-67
2022/06/12 05:57:35;;;;;;;;;;;;;;;;;;5091225;28;972;-67
2022/06/12 06:00:01;;;;;;;;;;;;;;;;;;5091327;28;1959;-67
2022/06/12 06:02:27;;;;;;;;;;;;;;;;;;5090842;28;770;-69
2022/06/12 06:04:52;;;;;;;;;;;;;;;;;;5073422;28;1307;-68
2022/06/12 06:07:17;;;;;;;;;;;;;;;;;;5091183;28;1062;-68
2022/06/12 06:09:42;;;;;;;;;;;;;;;;;;5091845;28;999;-67
2022/06/12 06:12:08;;;;;;;;;;;;;;;;;;5091361;28;1034;-67
2022/06/12 06:14:33;;;;;;;;;;;;;;;;;;5072241;28;1191;-67
2022/06/12 06:16:58;;;;;;;;;;;;;;;;;;5090822;28;983;-67
2022/06/12 06:19:23;;;;;;;;;;;;;;;;;;5090389;28;1936;-67
2022/06/12 06:21:49;;;;;;;;;;;;;;;;;;5089458;28;1293;-67
2022/06/12 06:24:14;;;;;;;;;;;;;;;;;;5090521;28;951;-67
2022/06/12 06:26:40;;;;;;;;;;;;;;;;;;5091181;28;813;-67
2022/06/12 06:29:06;;;;;;;;;;;;;;;;;;5089460;28;1250;-67
2022/06/12 06:31:31;;;;;;;;;;;;;;;;;;5090621;28;820;-67
2022/06/12 06:33:57;;;;;;;;;;;;;;;;;;5090723;28;711;-67
2022/06/12 06:36:22;;;;;;;;;;;;;;;;;;5089304;28;908;-67
2022/06/12 06:38:49;;;;;;;;;;;;;;;;;;5090873;28;860;-67
2022/06/12 06:41:15;;;;;;;;;;;;;;;;;;5089025;28;1947;-68
2022/06/12 06:46:24;;;;;;;;;;;;;;;;;;5090646;28;695;-67
2022/06/12 06:48:49;;;;;;;;;;;;;;;;;;5093681;28;824;-66
2022/06/12 06:51:15;;;;;;;;;;;;;;;;;;5094399;28;915;-67
2022/06/12 06:53:40;;;;;;;;;;;;;;;;;;5094720;28;788;-66
2022/06/12 06:56:06;;;;;;;;;;;;;;;;;;5093017;28;1392;-66
2022/06/12 06:58:32;;;;;;;;;;;;;;;;;;5092182;28;1429;-66
2022/06/12 07:00:58;;;;;;;;;;;;;;;;;;5094127;28;1964;-67
2022/06/12 07:03:23;;;;;;;;;;;;;;;;;;5093569;28;915;-67
2022/06/12 07:05:49;;;;;;;;;;;;;;;;;;5094040;28;892;-67
2022/06/12 07:08:14;;;;;;;;;;;;;;;;;;5092835;28;915;-66
2022/06/12 07:10:40;;;;;;;;;;;;;;;;;;5076274;28;1182;-67
2022/06/12 07:13:06;;;;;;;;;;;;;;;;;;5092282;28;1308;-67
2022/06/12 07:15:32;;;;;;;;;;;;;;;;;;5093449;28;911;-67
2022/06/12 07:17:58;;;;;;;;;;;;;;;;;;5092337;28;1075;-66
2022/06/12 07:20:30;;;;;;;;;;;;;;;;;;5092970;28;1909;-67
2022/06/12 07:22:56;;;;;;;;;;;;;;;;;;5093866;28;899;-67
2022/06/12 07:25:21;;;;;;;;;;;;;;;;;;5094006;28;816;-67
2022/06/12 07:27:47;;;;;;;;;;;;;;;;;;5092288;28;1493;-66
2022/06/12 07:30:14;;;;;;;;;;;;;;;;;;5093902;28;833;-67
2022/06/12 07:32:40;;;;;;;;;;;;;;;;;;5092130;28;1348;-67
2022/06/12 07:35:05;;;;;;;;;;;;;;;;;;5094007;28;971;-67
2022/06/12 07:37:31;;;;;;;;;;;;;;;;;;5092614;28;884;-67
2022/06/12 07:39:56;;;;;;;;;;;;;;;;;;5092600;28;1968;-67
2022/06/12 07:42:22;;;;;;;;;;;;;;;;;;5092618;28;880;-67
2022/06/12 07:44:48;;;;;;;;;;;;;;;;;;5092573;28;1381;-67
2022/06/12 07:47:14;;;;;;;;;;;;;;;;;;5095194;28;908;-66
2022/06/12 07:49:39;;;;;;;;;;;;;;;;;;5093218;28;1329;-67
2022/06/12 07:52:07;;;;;;;;;;;;;;;;;;5092058;28;1278;-67
2022/06/12 07:54:33;;;;;;;;;;;;;;;;;;5093643;28;1030;-67
2022/06/12 07:56:59;;;;;;;;;;;;;;;;;;5094404;28;1452;-67
2022/06/12 07:59:24;;;;;;;;;;;;;;;;;;5096514;28;936;-67
2022/06/12 08:01:50;;;;;;;;;;;;;;;;;;5095621;28;1898;-67
2022/06/12 08:04:16;;;;;;;;;;;;;;;;;;5095468;28;869;-66
2022/06/12 08:06:41;;;;;;;;;;;;;;;;;;5093938;28;1101;-67
2022/06/12 08:09:11;;;;;;;;;;;;;;;;;;5096171;28;940;-67
2022/06/12 08:11:38;;;;;;;;;;;;;;;;;;5095006;28;1329;-66
2022/06/12 08:14:03;;;;;;;;;;;;;;;;;;5096984;28;915;-66
2022/06/12 08:16:29;;;;;;;;;;;;;;;;;;5094674;28;940;-66
2022/06/12 08:18:54;;;;;;;;;;;;;;;;;;5092735;28;1442;-66
2022/06/12 08:21:21;;;;;;;;;;;;;;;;;;5092134;28;1910;-66
2022/06/12 08:23:52;;;;;;;;;;;;;;;;;;5091686;28;985;-67
2022/06/12 08:26:20;;;;;;;;;;;;;;;;;;5093386;28;821;-67
2022/06/12 08:28:48;;;;;;;;;;;;;;;;;;5093427;28;1059;-66
2022/06/12 08:31:16;;;;;;;;;;;;;;;;;;5093145;28;931;-66
2022/06/12 08:33:43;;;;;;;;;;;;;;;;;;5092138;28;833;-67
2022/06/12 08:36:10;;;;;;;;;;;;;;;;;;5092436;28;793;-67
2022/06/12 08:38:36;;;;;;;;;;;;;;;;;;5092401;28;797;-68
2022/06/12 08:41:10;;;;;;;;;;;;;;;;;;5092570;28;1906;-67
2022/06/12 08:43:53;;;;;;;;;;;;;;;;;;5092217;28;1020;-67
2022/06/12 08:46:34;;;;;;;;;;;;;;;;;;5091772;28;852;-67
2022/06/12 08:49:05;;;;;;;;;;;;;;;;;;5090914;28;1190;-67
2022/06/12 08:51:38;;;;;;;;;;;;;;;;;;5091828;28;927;-68
2022/06/12 08:54:06;;;;;;;;;;;;;;;;;;5091677;28;868;-67
2022/06/12 08:56:35;;;;;;;;;;;;;;;;;;5091345;28;908;-68
2022/06/12 08:59:12;;;;;;;;;;;;;;;;;;5090099;28;1388;-68
2022/06/12 09:01:44;;;;;;;;;;;;;;;;;;5092418;28;1965;-68
2022/06/12 09:04:19;;;;;;;;;;;;;;;;;;5091776;28;809;-68
2022/06/12 09:06:50;;;;;;;;;;;;;;;;;;5090736;28;1143;-68
2022/06/12 09:09:18;;;;;;;;;;;;;;;;;;5091657;28;832;-68
2022/06/12 09:11:46;;;;;;;;;;;;;;;;;;5091286;28;994;-67
2022/06/12 09:14:38;;;;;;;;;;;;;;;;;;5089908;28;1389;-67
2022/06/12 09:17:12;;;;;;;;;;;;;;;;;;5075362;28;1076;-67
2022/06/12 09:19:56;;;;;;;;;;;;;;;;;;5089801;28;1898;-68
2022/06/12 09:22:40;;;;;;;;;;;;;;;;;;5089709;28;1239;-67
2022/06/12 09:25:14;;;;;;;;;;;;;;;;;;5088946;28;1213;-67
2022/06/12 09:27:39;;;;;;;;;;;;;;;;;;5091269;28;820;-68
2022/06/12 09:30:08;;;;;;;;;;;;;;;;;;5090786;28;872;-67
2022/06/12 09:32:39;;;;;;;;;;;;;;;;;;5091055;28;860;-67
2022/06/12 09:35:07;;;;;;;;;;;;;;;;;;5090651;28;1074;-68
2022/06/12 09:40:43;;;;;;;;;;;;;;;;;;5091029;28;1975;-68
2022/06/12 09:43:08;;;;;;;;;;;;;;;;;;5090815;28;852;-68
2022/06/12 09:45:42;;;;;;;;;;;;;;;;;;5090472;28;987;-68
2022/06/12 09:48:21;;;;;;;;;;;;;;;;;;5090949;28;932;-68
2022/06/12 09:50:47;;;;;;;;;;;;;;;;;;5091217;28;817;-68
2022/06/12 09:53:22;;;;;;;;;;;;;;;;;;5090171;28;848;-67
2022/06/12 09:55:51;;;;;;;;;;;;;;;;;;5091008;28;868;-68
2022/06/12 09:58:22;;;;;;;;;;;;;;;;;;5090267;28;963;-68
2022/06/12 10:01:06;;;;;;;;;;;;;;;;;;5091728;28;1973;-68
2022/06/12 10:03:39;;;;;;;;;;;;;;;;;;5089472;28;1317;-68
2022/06/12 10:06:15;;;;;;;;;;;;;;;;;;5090781;28;899;-68
2022/06/12 10:08:50;;;;;;;;;;;;;;;;;;5091506;28;852;-68
2022/06/12 10:11:25;;;;;;;;;;;;;;;;;;5089232;28;1262;-67
2022/06/12 10:13:53;;;;;;;;;;;;;;;;;;5091511;28;852;-67
2022/06/12 10:16:21;;;;;;;;;;;;;;;;;;5090985;28;836;-68
2022/06/12 10:19:01;;;;;;;;;;;;;;;;;;5089360;28;1182;-68
2022/06/12 10:21:27;;;;;;;;;;;;;;;;;;5090835;28;1968;-68
2022/06/12 10:23:53;;;;;;;;;;;;;;;;;;5093505;28;833;-68
2022/06/12 10:26:28;;;;;;;;;;;;;;;;;;5093995;28;915;-68
2022/06/12 10:28:59;;;;;;;;;;;;;;;;;;5093344;28;1170;-68
2022/06/12 10:31:25;;;;;;;;;;;;;;;;;;5093156;28;1249;-68
2022/06/12 10:33:56;;;;;;;;;;;;;;;;;;5094985;28;825;-67
2022/06/12 10:36:27;;;;;;;;;;;;;;;;;;5092918;28;1806;-67
2022/06/12 10:39:25;;;;;;;;;;;;;;;;;;5095478;28;887;-67
2022/06/12 10:42:00;;;;;;;;;;;;;;;;;;5071450;28;1882;-67
2022/06/12 10:44:25;;;;;;;;;;;;;;;;;;5093420;28;1377;-68
2022/06/12 10:46:51;;;;;;;;;;;;;;;;;;5095007;28;1056;-68
2022/06/12 10:49:18;;;;;;;;;;;;;;;;;;5094743;28;730;-68
2022/06/12 10:51:45;;;;;;;;;;;;;;;;;;5095164;28;848;-66
2022/06/12 10:54:13;;;;;;;;;;;;;;;;;;5092909;28;1382;-66
2022/06/12 10:56:45;;;;;;;;;;;;;;;;;;5093385;28;1431;-66
2022/06/12 10:59:29;;;;;;;;;;;;;;;;;;5094271;28;1250;-66
2022/06/12 11:02:07;;;;;;;;;;;;;;;;;;5092807;28;1965;-66
2022/06/12 11:04:32;;;;;;;;;;;;;;;;;;5093875;28;821;-66
2022/06/12 11:07:00;;;;;;;;;;;;;;;;;;5093786;28;962;-67
2022/06/12 11:09:32;;;;;;;;;;;;;;;;;;5094060;28;769;-67
2022/06/12 11:12:05;;;;;;;;;;;;;;;;;;5094367;28;1093;-67
2022/06/12 11:15:07;;;;;;;;;;;;;;;;;;5091933;28;1190;-67
2022/06/12 11:17:38;;;;;;;;;;;;;;;;;;5033669;28;1482;-66
2022/06/12 11:20:04;;;;;;;;;;;;;;;;;;5084748;28;1918;-66
2022/06/12 11:22:33;;;;;;;;;;;;;;;;;;5093260;28;1199;-66
2022/06/12 11:24:58;;;;;;;;;;;;;;;;;;5085233;28;1445;-67
2022/06/12 11:27:29;;;;;;;;;;;;;;;;;;5083590;28;1534;-67
2022/06/12 11:30:04;;;;;;;;;;;;;;;;;;5077817;28;1443;-66
2022/06/12 11:32:32;;;;;;;;;;;;;;;;;;5100236;28;1503;-67
2022/06/12 11:35:00;;;;;;;;;;;;;;;;;;5114246;28;864;-67
2022/06/12 11:37:28;;;;;;;;;;;;;;;;;;5114178;28;917;-67
2022/06/12 11:40:09;;;;;;;;;;;;;;;;;;5112740;28;1898;-67
2022/06/12 11:42:41;;;;;;;;;;;;;;;;;;5112118;28;1386;-67
2022/06/12 11:45:18;;;;;;;;;;;;;;;;;;5112976;28;1296;-67
2022/06/12 11:47:59;;;;;;;;;;;;;;;;;;5114282;28;1172;-67
2022/06/12 11:50:35;;;;;;;;;;;;;;;;;;5113707;28;848;-68
2022/06/12 11:53:19;;;;;;;;;;;;;;;;;;5114849;27;891;-68
2022/06/12 11:55:50;;;;;;;;;;;;;;;;;;5114568;28;872;-69
2022/06/12 11:58:24;;;;;;;;;;;;;;;;;;5114302;27;1077;-68
2022/06/12 12:00:53;;;;;;;;;;;;;;;;;;5113219;28;1914;-68
2022/06/12 12:03:45;;;;;;;;;;;;;;;;;;5114305;28;891;-68
2022/06/12 12:06:24;;;;;;;;;;;;;;;;;;5097886;28;1417;-67
2022/06/12 12:08:52;;;;;;;;;;;;;;;;;;5114662;28;888;-67
2022/06/12 12:11:19;;;;;;;;;;;;;;;;;;5111741;28;1352;-68
2022/06/12 12:13:54;;;;;;;;;;;;;;;;;;5112440;28;1278;-67
2022/06/12 12:16:38;;;;;;;;;;;;;;;;;;5114120;28;935;-67
2022/06/12 12:19:16;;;;;;;;;;;;;;;;;;5114181;28;1387;-68
2022/06/12 12:21:58;;;;;;;;;;;;;;;;;;5113780;28;1964;-68
2022/06/12 12:24:27;;;;;;;;;;;;;;;;;;5113267;28;839;-67
2022/06/12 12:26:54;;;;;;;;;;;;;;;;;;5108501;28;1166;-68
2022/06/12 12:29:24;;;;;;;;;;;;;;;;;;5092878;28;1068;-68
2022/06/12 12:31:50;;;;;;;;;;;;;;;;;;5092015;28;1293;-67
2022/06/12 12:34:16;;;;;;;;;;;;;;;;;;5091480;28;1194;-68
2022/06/12 12:42:39;;;;;;;;;;;;;;;;;;5091859;28;709;-67
2022/06/12 12:45:28;;;;;;;;;;;;;;;;;;5089477;28;1117;-68
2022/06/12 12:48:00;;;;;;;;;;;;;;;;;;5082068;28;1370;-68
2022/06/12 12:50:26;;;;;;;;;;;;;;;;;;5090213;28;1349;-67
2022/06/12 12:52:57;;;;;;;;;;;;;;;;;;5090982;28;1237;-67
2022/06/12 12:55:25;;;;;;;;;;;;;;;;;;5091733;28;988;-68
2022/06/12 12:57:51;;;;;;;;;;;;;;;;;;5092619;28;793;-67
2022/06/12 13:00:16;;;;;;;;;;;;;;;;;;5090124;28;1965;-67
2022/06/12 13:02:53;;;;;;;;;;;;;;;;;;5091833;28;852;-67
2022/06/12 13:05:21;;;;;;;;;;;;;;;;;;5091465;28;903;-67
2022/06/12 13:07:58;;;;;;;;;;;;;;;;;;5092108;28;868;-67
2022/06/12 13:10:36;;;;;;;;;;;;;;;;;;5091039;28;885;-67
2022/06/12 13:13:07;;;;;;;;;;;;;;;;;;5090389;28;1373;-67
2022/06/12 13:15:32;;;;;;;;;;;;;;;;;;5089532;28;1183;-67
2022/06/12 13:18:16;;;;;;;;;;;;;;;;;;5091624;28;868;-67
2022/06/12 13:20:53;;;;;;;;;;;;;;;;;;5088016;28;1918;-67
2022/06/12 13:23:37;;;;;;;;;;;;;;;;;;5095601;28;1681;-66
2022/06/12 13:26:06;;;;;;;;;;;;;;;;;;5097943;28;1152;-67
2022/06/12 13:28:32;;;;;;;;;;;;;;;;;;5102866;28;1347;-67
2022/06/12 13:30:58;;;;;;;;;;;;;;;;;;5074408;28;1215;-67
2022/06/12 13:33:31;;;;;;;;;;;;;;;;;;5092776;28;848;-66
2022/06/12 13:36:06;;;;;;;;;;;;;;;;;;5091818;28;887;-67
2022/06/12 13:38:35;;;;;;;;;;;;;;;;;;5090228;28;1178;-68
2022/06/12 13:41:02;;;;;;;;;;;;;;;;;;5092579;28;1963;-68
2022/06/12 13:43:31;;;;;;;;;;;;;;;;;;5091180;28;1578;-68
2022/06/12 13:46:18;;;;;;;;;;;;;;;;;;5101721;28;1332;-68
2022/06/12 13:48:43;;;;;;;;;;;;;;;;;;5113898;28;931;-68
2022/06/12 13:51:08;;;;;;;;;;;;;;;;;;5101070;28;1469;-68
2022/06/12 13:53:39;;;;;;;;;;;;;;;;;;5109775;27;1670;-68
2022/06/12 13:56:10;;;;;;;;;;;;;;;;;;5085563;28;1381;-68
2022/06/12 13:58:39;;;;;;;;;;;;;;;;;;5077488;28;1646;-68
2022/06/12 14:01:07;;;;;;;;;;;;;;;;;;5090282;28;1910;-68
2022/06/12 14:04:01;;;;;;;;;;;;;;;;;;5091775;28;764;-68
2022/06/12 14:06:29;;;;;;;;;;;;;;;;;;5087701;28;1766;-67
2022/06/12 14:09:01;;;;;;;;;;;;;;;;;;5090300;28;1135;-69
2022/06/12 14:11:27;;;;;;;;;;;;;;;;;;5090391;28;983;-69
2022/06/12 14:13:53;;;;;;;;;;;;;;;;;;5091253;28;804;-69
2022/06/12 14:16:20;;;;;;;;;;;;;;;;;;5090184;28;824;-69
2022/06/12 14:18:53;;;;;;;;;;;;;;;;;;5090798;28;856;-69
2022/06/12 14:21:23;;;;;;;;;;;;;;;;;;5089041;28;1981;-69
2022/06/12 14:23:50;;;;;;;;;;;;;;;;;;5089518;28;1413;-69
2022/06/12 14:26:22;;;;;;;;;;;;;;;;;;5089066;28;1233;-69
2022/06/12 14:28:47;;;;;;;;;;;;;;;;;;5090138;28;982;-69
2022/06/12 14:31:15;;;;;;;;;;;;;;;;;;5090307;28;982;-69
2022/06/12 14:33:52;;;;;;;;;;;;;;;;;;5090735;28;1189;-69
2022/06/12 14:36:47;;;;;;;;;;;;;;;;;;5091014;28;895;-69
2022/06/12 14:39:30;;;;;;;;;;;;;;;;;;5090038;28;892;-69
2022/06/12 14:42:00;;;;;;;;;;;;;;;;;;5090607;28;1984;-69
2022/06/12 14:44:26;;;;;;;;;;;;;;;;;;5088738;28;1135;-69
2022/06/12 14:46:53;;;;;;;;;;;;;;;;;;5088900;28;1189;-69
2022/06/12 14:49:20;;;;;;;;;;;;;;;;;;5089639;28;770;-69
2022/06/12 14:51:46;;;;;;;;;;;;;;;;;;5090058;28;868;-69
2022/06/12 14:54:11;;;;;;;;;;;;;;;;;;5090027;28;864;-69
2022/06/12 14:56:39;;;;;;;;;;;;;;;;;;5088815;28;1205;-69
2022/06/12 14:59:04;;;;;;;;;;;;;;;;;;5088813;28;1314;-69
2022/06/12 15:01:30;;;;;;;;;;;;;;;;;;5072697;28;1886;-69
2022/06/12 15:03:55;;;;;;;;;;;;;;;;;;5088767;28;1285;-69
2022/06/12 15:06:20;;;;;;;;;;;;;;;;;;5088816;28;861;-69
2022/06/12 15:08:46;;;;;;;;;;;;;;;;;;5086770;28;1568;-69
2022/06/12 15:11:14;;;;;;;;;;;;;;;;;;5073989;28;1453;-69
2022/06/12 15:13:39;;;;;;;;;;;;;;;;;;5101547;28;1144;-69
2022/06/12 15:16:06;;;;;;;;;;;;;;;;;;5098302;28;1459;-69
2022/06/12 15:18:31;;;;;;;;;;;;;;;;;;5090202;28;1406;-69
2022/06/12 15:20:56;;;;;;;;;;;;;;;;;;5087203;28;1988;-69
2022/06/12 15:23:23;;;;;;;;;;;;;;;;;;5090002;28;1757;-69
2022/06/12 15:31:18;;;;;;;;;;;;;;;;;;5110545;28;1032;-69
2022/06/12 15:33:44;;;;;;;;;;;;;;;;;;5087468;28;1496;-68
2022/06/12 15:36:10;;;;;;;;;;;;;;;;;;5086223;28;1639;-69
2022/06/12 15:38:35;;;;;;;;;;;;;;;;;;5112382;27;1464;-69
2022/06/12 15:41:02;;;;;;;;;;;;;;;;;;5080051;28;1959;-69
2022/06/12 15:43:27;;;;;;;;;;;;;;;;;;5080904;28;1420;-69
2022/06/12 15:45:52;;;;;;;;;;;;;;;;;;5093101;28;1205;-69
2022/06/12 15:48:17;;;;;;;;;;;;;;;;;;5094201;28;852;-69
2022/06/12 15:50:43;;;;;;;;;;;;;;;;;;5093734;28;770;-69
2022/06/12 15:53:09;;;;;;;;;;;;;;;;;;5094092;28;991;-69
2022/06/12 15:55:35;;;;;;;;;;;;;;;;;;5094023;28;829;-69
2022/06/12 15:58:00;;;;;;;;;;;;;;;;;;5091967;28;1190;-69
2022/06/12 16:00:25;;;;;;;;;;;;;;;;;;5093242;28;1953;-69
2022/06/12 16:02:51;;;;;;;;;;;;;;;;;;5093473;28;970;-69
2022/06/12 16:05:18;;;;;;;;;;;;;;;;;;5092657;28;836;-69
2022/06/12 16:07:43;;;;;;;;;;;;;;;;;;5090423;28;1368;-69
2022/06/12 16:10:11;;;;;;;;;;;;;;;;;;5093111;28;892;-69
2022/06/12 16:12:40;;;;;;;;;;;;;;;;;;5092941;28;917;-69
2022/06/12 16:15:11;;;;;;;;;;;;;;;;;;5091174;28;1218;-69
2022/06/12 16:17:36;;;;;;;;;;;;;;;;;;5092762;28;856;-69
2022/06/12 16:20:03;;;;;;;;;;;;;;;;;;5091269;28;1910;-69
2022/06/12 16:22:29;;;;;;;;;;;;;;;;;;5090309;28;848;-69
2022/06/12 16:24:54;;;;;;;;;;;;;;;;;;5092373;28;908;-68
2022/06/12 16:27:20;;;;;;;;;;;;;;;;;;5105618;28;1386;-69
2022/06/12 16:29:45;;;;;;;;;;;;;;;;;;5100224;28;1143;-69
2022/06/12 16:32:10;;;;;;;;;;;;;;;;;;5091767;28;813;-69
2022/06/12 16:34:35;;;;;;;;;;;;;;;;;;5092279;28;899;-69
2022/06/12 16:37:01;;;;;;;;;;;;;;;;;;5092009;28;844;-69
2022/06/12 16:39:27;;;;;;;;;;;;;;;;;;5090764;28;1293;-68
2022/06/12 16:41:53;;;;;;;;;;;;;;;;;;5092217;28;1977;-69
2022/06/12 16:44:23;;;;;;;;;;;;;;;;;;5090758;28;825;-69
2022/06/12 16:46:49;;;;;;;;;;;;;;;;;;5092513;28;857;-68
2022/06/12 16:49:21;;;;;;;;;;;;;;;;;;5091965;28;888;-68
2022/06/12 16:51:58;;;;;;;;;;;;;;;;;;5092488;28;821;-68
2022/06/12 16:54:24;;;;;;;;;;;;;;;;;;5090957;28;1317;-69
2022/06/12 16:56:50;;;;;;;;;;;;;;;;;;5090964;28;1014;-68
2022/06/12 16:59:15;;;;;;;;;;;;;;;;;;5092742;28;781;-69
2022/06/12 17:01:42;;;;;;;;;;;;;;;;;;5090776;28;1953;-68
2022/06/12 17:04:08;;;;;;;;;;;;;;;;;;5091193;28;1206;-68
2022/06/12 17:06:37;;;;;;;;;;;;;;;;;;5092140;28;856;-68
2022/06/12 17:09:04;;;;;;;;;;;;;;;;;;5090306;28;1333;-68
2022/06/12 17:11:29;;;;;;;;;;;;;;;;;;5091276;28;1308;-68
2022/06/12 17:13:55;;;;;;;;;;;;;;;;;;5090952;28;837;-68
2022/06/12 17:16:20;;;;;;;;;;;;;;;;;;5091955;28;829;-68
2022/06/12 17:21:29;;;;;;;;;;;;;;;;;;5092091;28;1981;-68
2022/06/12 17:23:55;;;;;;;;;;;;;;;;;;5090695;28;865;-68
2022/06/12 17:26:20;;;;;;;;;;;;;;;;;;5090696;28;1085;-68
2022/06/12 17:28:45;;;;;;;;;;;;;;;;;;5091254;28;872;-68
2022/06/12 17:31:10;;;;;;;;;;;;;;;;;;5092080;28;765;-68
2022/06/12 17:33:36;;;;;;;;;;;;;;;;;;5092131;28;986;-68
2022/06/12 17:36:02;;;;;;;;;;;;;;;;;;5091852;28;840;-68
2022/06/12 17:38:27;;;;;;;;;;;;;;;;;;5089971;28;2257;-68
2022/06/12 17:40:52;;;;;;;;;;;;;;;;;;5091504;28;1980;-68
2022/06/12 17:43:18;;;;;;;;;;;;;;;;;;5091427;28;833;-68
2022/06/12 17:45:43;;;;;;;;;;;;;;;;;;5091626;28;856;-68
2022/06/12 17:48:11;;;;;;;;;;;;;;;;;;5090006;28;979;-68
2022/06/12 17:50:37;;;;;;;;;;;;;;;;;;5090261;28;1232;-66